createdAt,value
2017-11-10T00:00:46.639Z,4.20
2017-11-10T00:03:14.074Z,4.20
2017-11-10T00:05:41.617Z,4.20
2017-11-10T00:08:09.193Z,4.20
2017-11-10T00:10:37.074Z,4.30
2017-11-10T00:13:05.079Z,4.40
2017-11-10T00:15:33.298Z,4.60
2017-11-10T00:18:00.735Z,4.50
2017-11-10T00:20:28.244Z,4.60
2017-11-10T00:22:55.651Z,4.60
2017-11-10T00:25:23.090Z,4.70
2017-11-10T00:27:53.879Z,4.80
2017-11-10T00:30:22.082Z,4.90
2017-11-10T00:32:49.521Z,4.90
2017-11-10T00:35:17.455Z,4.90
2017-11-10T00:37:44.882Z,4.80
2017-11-10T00:40:13.484Z,4.80
2017-11-10T00:42:40.926Z,4.80
2017-11-10T00:45:09.125Z,4.90
2017-11-10T00:47:36.536Z,4.90
2017-11-10T00:50:04.746Z,5.00
2017-11-10T00:52:32.187Z,5.00
2017-11-10T00:55:00.790Z,5.10
2017-11-10T00:57:28.901Z,5.00
2017-11-10T00:59:56.333Z,5.10
2017-11-10T01:02:24.187Z,5.10
2017-11-10T01:04:51.658Z,5.10
2017-11-10T01:07:19.089Z,5.10
2017-11-10T01:09:46.526Z,5.10
2017-11-10T01:12:15.130Z,5.10
2017-11-10T01:14:43.120Z,5.00
2017-11-10T01:17:11.093Z,5.10
2017-11-10T01:19:44.946Z,5.10
2017-11-10T01:22:17.298Z,5.10
2017-11-10T01:24:44.741Z,5.10
2017-11-10T01:27:12.185Z,5.10
2017-11-10T01:29:40.151Z,5.10
2017-11-10T01:32:07.592Z,5.10
2017-11-10T01:34:35.013Z,5.10
2017-11-10T01:37:03.222Z,5.10
2017-11-10T01:39:31.401Z,5.20
2017-11-10T01:41:59.256Z,5.10
2017-11-10T01:44:26.689Z,5.20
2017-11-10T01:46:54.125Z,5.20
2017-11-10T01:49:28.143Z,5.20
2017-11-10T01:51:55.570Z,5.20
2017-11-10T01:54:23.413Z,5.20
2017-11-10T01:56:50.850Z,5.20
2017-11-10T01:59:19.048Z,5.30
2017-11-10T02:01:46.469Z,5.30
2017-11-10T02:04:15.107Z,5.30
2017-11-10T02:06:42.552Z,5.30
2017-11-10T02:09:09.982Z,5.30
2017-11-10T02:11:38.184Z,5.40
2017-11-10T02:14:05.597Z,5.40
2017-11-10T02:16:34.442Z,5.40
2017-11-10T02:19:01.880Z,5.40
2017-11-10T02:21:29.298Z,5.40
2017-11-10T02:23:56.720Z,5.40
2017-11-10T02:26:24.577Z,5.40
2017-11-10T02:28:51.994Z,5.40
2017-11-10T02:31:19.444Z,5.40
2017-11-10T02:33:47.630Z,5.40
2017-11-10T02:36:15.058Z,5.40
2017-11-10T02:38:43.301Z,5.40
2017-11-10T02:41:11.551Z,5.40
2017-11-10T02:43:40.257Z,5.40
2017-11-10T02:46:07.693Z,5.40
2017-11-10T02:48:35.512Z,5.40
2017-11-10T02:51:02.934Z,5.40
2017-11-10T02:53:30.349Z,5.40
2017-11-10T02:55:59.102Z,5.50
2017-11-10T02:58:26.531Z,5.50
2017-11-10T03:00:53.962Z,5.40
2017-11-10T03:03:21.385Z,5.40
2017-11-10T03:05:48.831Z,5.40
2017-11-10T03:08:16.255Z,5.40
2017-11-10T03:10:43.690Z,5.40
2017-11-10T03:13:11.976Z,5.40
2017-11-10T03:15:40.159Z,5.40
2017-11-10T03:18:08.110Z,5.40
2017-11-10T03:20:35.983Z,5.40
2017-11-10T03:23:03.963Z,5.50
2017-11-10T03:25:31.397Z,5.50
2017-11-10T03:27:58.822Z,5.50
2017-11-10T03:30:26.795Z,5.40
2017-11-10T03:32:54.224Z,5.50
2017-11-10T03:35:21.662Z,5.40
2017-11-10T03:37:49.534Z,5.40
2017-11-10T03:40:16.966Z,5.40
2017-11-10T03:42:46.293Z,5.40
2017-11-10T03:45:13.704Z,5.40
2017-11-10T03:47:41.902Z,5.30
2017-11-10T03:50:09.331Z,5.30
2017-11-10T03:52:37.525Z,5.30
2017-11-10T03:55:05.578Z,5.20
2017-11-10T03:57:32.990Z,5.20
2017-11-10T04:00:00.413Z,5.10
2017-11-10T04:02:27.949Z,5.10
2017-11-10T04:04:56.146Z,5.00
2017-11-10T04:07:23.605Z,5.00
2017-11-10T04:09:51.029Z,5.00
2017-11-10T04:12:18.454Z,5.00
2017-11-10T04:14:46.299Z,5.10
2017-11-10T04:17:13.735Z,5.10
2017-11-10T04:19:42.098Z,5.00
2017-11-10T04:22:11.202Z,5.00
2017-11-10T04:24:39.403Z,4.90
2017-11-10T04:27:06.848Z,4.90
2017-11-10T04:29:34.265Z,4.90
2017-11-10T04:32:01.998Z,4.90
2017-11-10T04:34:29.421Z,4.80
2017-11-10T04:36:56.873Z,4.80
2017-11-10T04:39:24.305Z,4.70
2017-11-10T04:41:51.733Z,4.70
2017-11-10T04:44:19.165Z,4.60
2017-11-10T04:46:46.595Z,4.60
2017-11-10T04:49:14.028Z,4.60
2017-11-10T04:51:41.978Z,4.60
2017-11-10T04:54:09.402Z,4.60
2017-11-10T04:56:36.834Z,4.60
2017-11-10T04:59:05.028Z,4.60
2017-11-10T05:01:34.541Z,4.60
2017-11-10T05:04:01.962Z,4.60
2017-11-10T05:06:30.167Z,4.70
2017-11-10T05:08:57.594Z,4.70
2017-11-10T05:11:25.798Z,4.70
2017-11-10T05:13:53.213Z,4.70
2017-11-10T05:16:20.653Z,4.70
2017-11-10T05:18:48.087Z,4.80
2017-11-10T05:21:15.526Z,4.80
2017-11-10T05:23:42.953Z,4.80
2017-11-10T05:26:11.145Z,4.80
2017-11-10T05:28:38.565Z,4.80
2017-11-10T05:31:06.766Z,4.90
2017-11-10T05:33:34.211Z,4.80
2017-11-10T05:36:01.641Z,4.80
2017-11-10T05:38:29.070Z,4.90
2017-11-10T05:40:57.425Z,4.90
2017-11-10T05:43:24.854Z,4.90
2017-11-10T05:45:53.866Z,4.90
2017-11-10T05:48:21.317Z,4.90
2017-11-10T05:50:50.322Z,4.90
2017-11-10T05:53:17.749Z,4.90
2017-11-10T05:55:45.641Z,4.90
2017-11-10T05:58:13.073Z,4.80
2017-11-10T06:00:40.497Z,4.80
2017-11-10T06:03:07.930Z,4.80
2017-11-10T06:05:35.353Z,4.80
2017-11-10T06:08:03.835Z,4.80
2017-11-10T06:10:31.242Z,4.80
2017-11-10T06:12:58.679Z,4.80
2017-11-10T06:15:26.103Z,4.70
2017-11-10T06:17:54.309Z,4.70
2017-11-10T06:20:21.730Z,4.60
2017-11-10T06:22:51.867Z,4.60
2017-11-10T06:25:23.741Z,4.70
2017-11-10T06:27:51.929Z,4.70
2017-11-10T06:30:19.350Z,4.60
2017-11-10T06:32:48.358Z,4.60
2017-11-10T06:35:15.779Z,4.60
2017-11-10T06:37:43.213Z,4.60
2017-11-10T06:40:10.662Z,4.60
2017-11-10T06:42:38.633Z,4.70
2017-11-10T06:45:07.083Z,4.70
2017-11-10T06:47:34.513Z,4.70
2017-11-10T06:50:03.699Z,4.80
2017-11-10T06:52:31.121Z,4.80
2017-11-10T06:54:58.556Z,4.80
2017-11-10T06:57:25.982Z,4.80
2017-11-10T06:59:54.178Z,4.90
2017-11-10T07:02:21.626Z,4.90
2017-11-10T07:04:50.394Z,4.90
2017-11-10T07:07:19.133Z,4.90
2017-11-10T07:09:47.566Z,4.90
2017-11-10T07:12:15.762Z,5.00
2017-11-10T07:14:43.204Z,5.00
2017-11-10T07:17:11.397Z,5.00
2017-11-10T07:19:39.386Z,5.00
2017-11-10T07:22:06.814Z,5.00
2017-11-10T07:24:34.251Z,4.90
2017-11-10T07:27:03.108Z,4.90
2017-11-10T07:29:31.082Z,4.90
2017-11-10T07:31:58.510Z,4.90
2017-11-10T07:34:25.952Z,5.00
2017-11-10T07:36:55.322Z,5.00
2017-11-10T07:39:22.740Z,5.00
2017-11-10T07:41:50.170Z,5.00
2017-11-10T07:44:17.604Z,5.10
2017-11-10T07:46:45.789Z,5.30
2017-11-10T07:49:13.654Z,5.30
2017-11-10T07:51:41.847Z,5.40
2017-11-10T07:54:09.789Z,5.40
2017-11-10T07:56:37.981Z,5.50
2017-11-10T07:59:05.421Z,5.50
2017-11-10T08:01:34.042Z,5.50
2017-11-10T08:04:03.349Z,5.50
2017-11-10T08:06:31.189Z,5.50
2017-11-10T08:08:58.618Z,5.60
2017-11-10T08:11:26.044Z,5.60
2017-11-10T08:13:54.061Z,5.60
2017-11-10T08:16:21.505Z,5.60
2017-11-10T08:18:49.808Z,5.60
2017-11-10T08:21:18.517Z,5.70
2017-11-10T08:23:46.659Z,5.60
2017-11-10T08:26:14.953Z,5.70
2017-11-10T08:28:42.531Z,5.70
2017-11-10T08:31:10.615Z,5.70
2017-11-10T08:33:38.310Z,5.70
2017-11-10T08:36:06.382Z,5.70
2017-11-10T08:38:34.646Z,5.80
2017-11-10T08:41:05.129Z,5.80
2017-11-10T08:43:32.575Z,5.80
2017-11-10T08:46:00.061Z,5.80
2017-11-10T08:48:27.545Z,5.90
2017-11-10T08:50:57.533Z,5.80
2017-11-10T08:53:25.546Z,5.80
2017-11-10T08:55:54.313Z,5.90
2017-11-10T08:58:21.750Z,5.90
2017-11-10T09:00:49.173Z,5.90
2017-11-10T09:03:17.125Z,5.90
2017-11-10T09:05:45.314Z,5.80
2017-11-10T09:08:12.741Z,5.80
2017-11-10T09:10:44.383Z,5.80
2017-11-10T09:13:12.358Z,5.80
2017-11-10T09:15:40.209Z,5.80
2017-11-10T09:18:08.185Z,5.80
2017-11-10T09:20:36.049Z,5.80
2017-11-10T09:23:03.486Z,5.80
2017-11-10T09:25:32.222Z,5.80
2017-11-10T09:28:03.354Z,5.80
2017-11-10T09:30:50.645Z,5.90
2017-11-10T09:33:31.316Z,5.90
2017-11-10T09:39:36.201Z,5.80
2017-11-10T09:42:19.936Z,5.80
2017-11-10T09:44:53.008Z,5.70
2017-11-10T09:47:26.262Z,5.70
2017-11-10T09:49:59.397Z,5.70
2017-11-10T09:52:32.639Z,5.70
2017-11-10T09:55:03.920Z,5.70
2017-11-10T09:57:37.838Z,5.70
2017-11-10T10:00:18.134Z,5.60
2017-11-10T10:02:50.851Z,5.70
2017-11-10T10:05:23.942Z,5.60
2017-11-10T10:07:51.827Z,5.60
2017-11-10T10:10:39.490Z,5.70
2017-11-10T10:13:14.886Z,5.70
2017-11-10T10:18:57.732Z,5.70
2017-11-10T10:21:30.468Z,5.70
2017-11-10T10:23:59.127Z,5.70
2017-11-10T10:26:26.801Z,5.60
2017-11-10T10:28:55.821Z,5.70
2017-11-10T10:31:23.245Z,5.60
2017-11-10T10:33:50.685Z,5.70
2017-11-10T10:36:18.121Z,5.70
2017-11-10T10:38:45.557Z,5.70
2017-11-10T10:41:13.130Z,5.70
2017-11-10T10:43:40.566Z,5.70
2017-11-10T10:48:42.482Z,5.70
2017-11-10T10:51:09.916Z,5.70
2017-11-10T10:53:37.371Z,5.70
2017-11-10T10:56:11.286Z,5.70
2017-11-10T10:58:39.148Z,5.70
2017-11-10T11:01:06.560Z,5.70
2017-11-10T11:03:33.996Z,5.70
2017-11-10T11:06:01.822Z,5.70
2017-11-10T11:08:29.764Z,5.80
2017-11-10T11:10:57.957Z,5.80
2017-11-10T11:13:25.395Z,5.80
2017-11-10T11:15:53.714Z,5.80
2017-11-10T11:18:21.149Z,5.80
2017-11-10T11:20:48.585Z,5.80
2017-11-10T11:23:17.145Z,5.90
2017-11-10T11:25:44.566Z,5.90
2017-11-10T11:28:11.997Z,5.90
2017-11-10T11:30:39.425Z,5.90
2017-11-10T11:33:07.630Z,5.90
2017-11-10T11:35:35.462Z,5.90
2017-11-10T11:38:03.556Z,6.00
2017-11-10T11:40:31.747Z,6.00
2017-11-10T11:42:59.176Z,6.00
2017-11-10T11:45:27.366Z,6.10
2017-11-10T11:47:54.817Z,6.00
2017-11-10T11:50:23.014Z,6.10
2017-11-10T11:52:50.451Z,6.00
2017-11-10T11:55:17.880Z,6.10
2017-11-10T11:57:45.332Z,6.10
2017-11-10T12:00:12.816Z,6.10
2017-11-10T12:02:41.020Z,6.10
2017-11-10T12:05:08.450Z,6.10
2017-11-10T12:07:36.678Z,6.20
2017-11-10T12:10:04.100Z,6.10
2017-11-10T12:12:31.584Z,6.10
2017-11-10T12:14:59.167Z,6.10
2017-11-10T12:17:26.599Z,6.10
2017-11-10T12:19:54.017Z,6.10
2017-11-10T12:22:21.449Z,6.10
2017-11-10T12:24:48.886Z,6.10
2017-11-10T12:27:16.324Z,6.10
2017-11-10T12:29:43.741Z,6.10
2017-11-10T12:32:11.170Z,6.10
2017-11-10T12:34:38.615Z,6.10
2017-11-10T12:37:06.043Z,6.10
2017-11-10T12:39:33.466Z,6.10
2017-11-10T12:42:01.663Z,6.10
2017-11-10T12:44:29.090Z,6.10
2017-11-10T12:46:57.295Z,6.10
2017-11-10T12:49:24.702Z,6.10
2017-11-10T12:51:52.127Z,6.10
2017-11-10T12:54:19.810Z,6.10
2017-11-10T12:56:47.500Z,6.10
2017-11-10T12:59:15.118Z,6.10
2017-11-10T13:01:42.539Z,6.10
2017-11-10T13:04:09.969Z,6.20
2017-11-10T13:06:38.162Z,6.20
2017-11-10T13:09:06.354Z,6.20
2017-11-10T13:11:33.774Z,6.20
2017-11-10T13:14:02.281Z,6.20
2017-11-10T13:16:29.711Z,6.10
2017-11-10T13:18:57.137Z,6.20
2017-11-10T13:21:24.579Z,6.20
2017-11-10T13:23:52.002Z,6.20
2017-11-10T13:26:20.183Z,6.20
2017-11-10T13:28:47.611Z,6.20
2017-11-10T13:31:15.035Z,6.20
2017-11-10T13:33:42.473Z,6.20
2017-11-10T13:36:09.905Z,6.20
2017-11-10T13:38:37.321Z,6.20
2017-11-10T13:41:05.186Z,6.20
2017-11-10T13:43:32.610Z,6.20
2017-11-10T13:46:01.690Z,6.20
2017-11-10T13:48:29.112Z,6.20
2017-11-10T13:50:57.301Z,6.20
2017-11-10T13:53:25.922Z,6.20
2017-11-10T13:55:53.351Z,6.10
2017-11-10T13:58:20.782Z,6.10
2017-11-10T14:00:50.809Z,6.20
2017-11-10T14:03:19.005Z,6.20
2017-11-10T14:05:46.434Z,6.20
2017-11-10T14:08:13.865Z,6.20
2017-11-10T14:10:41.305Z,6.20
2017-11-10T14:13:08.746Z,6.20
2017-11-10T14:15:37.178Z,6.30
2017-11-10T14:18:04.601Z,6.30
2017-11-10T14:20:32.034Z,6.30
2017-11-10T14:22:59.468Z,6.40
2017-11-10T14:25:28.393Z,6.40
2017-11-10T14:27:55.824Z,6.40
2017-11-10T14:30:24.165Z,6.40
2017-11-10T14:32:51.589Z,6.40
2017-11-10T14:35:19.006Z,6.40
2017-11-10T14:37:47.212Z,6.50
2017-11-10T14:40:14.639Z,6.50
2017-11-10T14:42:42.835Z,6.50
2017-11-10T14:45:10.261Z,6.50
2017-11-10T14:47:38.453Z,6.50
2017-11-10T14:50:05.886Z,6.50
2017-11-10T14:52:34.899Z,6.50
2017-11-10T14:55:03.671Z,6.50
2017-11-10T14:57:31.857Z,6.50
2017-11-10T15:00:00.048Z,6.50
2017-11-10T15:02:28.374Z,6.40
2017-11-10T15:04:55.805Z,6.50
2017-11-10T15:07:23.237Z,6.50
2017-11-10T15:09:50.667Z,6.50
2017-11-10T15:12:18.862Z,6.50
2017-11-10T15:14:46.285Z,6.50
2017-11-10T15:17:13.721Z,6.50
2017-11-10T15:19:41.156Z,6.60
2017-11-10T15:22:08.593Z,6.80
2017-11-10T15:24:36.030Z,6.90
2017-11-10T15:27:04.954Z,6.90
2017-11-10T15:29:32.385Z,6.90
2017-11-10T15:32:00.583Z,6.90
2017-11-10T15:34:28.006Z,6.80
2017-11-10T15:36:56.403Z,6.80
2017-11-10T15:39:23.826Z,6.80
2017-11-10T15:41:51.782Z,6.80
2017-11-10T15:44:19.198Z,6.80
2017-11-10T15:46:46.628Z,6.80
2017-11-10T15:49:14.815Z,6.70
2017-11-10T15:51:43.701Z,6.70
2017-11-10T15:54:11.150Z,6.70
2017-11-10T15:56:39.338Z,6.80
2017-11-10T15:59:06.765Z,6.70
2017-11-10T16:01:34.198Z,6.80
2017-11-10T16:04:01.627Z,6.90
2017-11-10T16:06:29.042Z,6.90
2017-11-10T16:08:57.229Z,6.90
2017-11-10T16:11:24.655Z,6.90
2017-11-10T16:13:52.086Z,7.00
2017-11-10T16:16:19.509Z,7.00
2017-11-10T16:18:46.931Z,7.00
2017-11-10T16:21:14.354Z,7.00
2017-11-10T16:23:41.784Z,6.90
2017-11-10T16:26:09.199Z,7.00
2017-11-10T16:28:37.037Z,7.00
2017-11-10T16:31:04.499Z,7.00
2017-11-10T16:33:31.950Z,7.00
2017-11-10T16:36:00.175Z,6.90
2017-11-10T16:38:28.376Z,6.90
2017-11-10T16:41:01.562Z,6.90
2017-11-10T16:43:29.558Z,6.90
2017-11-10T16:45:57.219Z,6.90
2017-11-10T16:48:24.647Z,6.90
2017-11-10T16:50:52.069Z,6.80
2017-11-10T16:53:19.497Z,6.80
2017-11-10T16:55:47.752Z,6.80
2017-11-10T16:58:15.165Z,6.80
2017-11-10T17:00:42.581Z,6.80
2017-11-10T17:03:10.569Z,6.80
2017-11-10T17:05:38.713Z,6.90
2017-11-10T17:08:06.122Z,6.90
2017-11-10T17:10:34.717Z,6.90
2017-11-10T17:13:02.890Z,6.90
2017-11-10T17:15:31.087Z,6.90
2017-11-10T17:17:59.390Z,6.90
2017-11-10T17:20:26.814Z,6.90
2017-11-10T17:22:54.227Z,6.90
2017-11-10T17:25:21.919Z,6.90
2017-11-10T17:27:49.929Z,7.00
2017-11-10T17:30:17.357Z,6.90
2017-11-10T17:32:44.773Z,7.00
2017-11-10T17:35:12.200Z,6.90
2017-11-10T17:37:39.617Z,6.90
2017-11-10T17:40:07.048Z,7.00
2017-11-10T17:42:34.463Z,7.00
2017-11-10T17:45:02.193Z,7.00
2017-11-10T17:47:30.398Z,7.10
2017-11-10T17:49:57.838Z,7.00
2017-11-10T17:52:25.474Z,6.90
2017-11-10T17:54:53.665Z,7.00
2017-11-10T17:57:21.093Z,7.00
2017-11-10T17:59:48.517Z,6.90
2017-11-10T18:02:15.937Z,6.80
2017-11-10T18:04:43.372Z,6.80
2017-11-10T18:07:11.582Z,6.90
2017-11-10T18:09:39.420Z,6.80
2017-11-10T18:12:08.020Z,6.80
2017-11-10T18:14:35.450Z,6.80
2017-11-10T18:17:03.634Z,6.80
2017-11-10T18:19:31.831Z,6.80
2017-11-10T18:21:59.251Z,6.80
2017-11-10T18:24:26.670Z,6.80
2017-11-10T18:26:54.098Z,6.80
2017-11-10T18:29:21.521Z,6.80
2017-11-10T18:31:53.229Z,6.80
2017-11-10T18:34:20.648Z,6.70
2017-11-10T18:36:48.844Z,6.60
2017-11-10T18:39:16.408Z,6.60
2017-11-10T18:41:43.818Z,6.60
2017-11-10T18:44:11.239Z,6.50
2017-11-10T18:46:38.674Z,6.40
2017-11-10T18:49:11.707Z,6.40
2017-11-10T18:51:42.015Z,6.30
2017-11-10T18:54:09.701Z,6.30
2017-11-10T18:56:37.118Z,6.20
2017-11-10T18:59:04.544Z,6.20
2017-11-10T19:01:33.839Z,6.10
2017-11-10T19:04:02.885Z,6.00
2017-11-10T19:06:30.315Z,6.00
2017-11-10T19:08:57.736Z,6.00
2017-11-10T19:11:26.476Z,5.90
2017-11-10T19:13:53.898Z,5.90
2017-11-10T19:16:22.089Z,5.80
2017-11-10T19:18:49.509Z,5.90
2017-11-10T19:21:18.144Z,5.80
2017-11-10T19:23:45.581Z,5.80
2017-11-10T19:26:13.005Z,5.70
2017-11-10T19:28:41.198Z,5.50
2017-11-10T19:31:09.402Z,5.30
2017-11-10T19:33:37.368Z,5.30
2017-11-10T19:36:04.776Z,5.10
2017-11-10T19:38:32.207Z,4.90
2017-11-10T19:40:59.639Z,4.70
2017-11-10T19:43:27.053Z,4.50
2017-11-10T19:45:55.791Z,4.30
2017-11-10T19:48:23.629Z,4.30
2017-11-10T19:50:51.909Z,4.10
2017-11-10T19:53:19.765Z,4.00
2017-11-10T19:55:47.477Z,4.20
2017-11-10T19:58:15.314Z,4.30
2017-11-10T20:00:42.743Z,4.30
2017-11-10T20:03:10.931Z,4.30
2017-11-10T20:05:38.350Z,4.30
2017-11-10T20:08:06.201Z,4.30
2017-11-10T20:10:33.666Z,4.30
2017-11-10T20:13:01.320Z,4.40
2017-11-10T20:15:29.159Z,4.50
2017-11-10T20:17:56.586Z,4.40
2017-11-10T20:20:24.789Z,4.40
2017-11-10T20:22:52.216Z,4.40
2017-11-10T20:25:21.062Z,4.40
2017-11-10T20:27:48.475Z,4.40
2017-11-10T20:30:15.917Z,4.50
2017-11-10T20:32:44.103Z,4.40
2017-11-10T20:35:12.326Z,4.20
2017-11-10T20:37:41.667Z,4.20
2017-11-10T20:40:09.174Z,4.20
2017-11-10T20:42:37.371Z,4.20
2017-11-10T20:45:05.409Z,4.10
2017-11-10T20:47:32.831Z,4.10
2017-11-10T20:50:01.030Z,4.00
2017-11-10T20:52:28.468Z,4.00
2017-11-10T20:54:56.670Z,3.90
2017-11-10T20:57:24.084Z,3.90
2017-11-10T20:59:51.512Z,3.90
2017-11-10T21:02:19.269Z,3.80
2017-11-10T21:04:46.685Z,3.80
2017-11-10T21:07:14.123Z,3.80
2017-11-10T21:09:42.304Z,3.70
2017-11-10T21:12:09.729Z,3.80
2017-11-10T21:14:37.164Z,3.60
2017-11-10T21:17:04.582Z,3.60
2017-11-10T21:19:32.000Z,3.60
2017-11-10T21:21:59.445Z,3.60
2017-11-10T21:24:26.883Z,3.50
2017-11-10T21:26:54.620Z,3.30
2017-11-10T21:29:22.054Z,3.10
2017-11-10T21:31:50.581Z,2.90
2017-11-10T21:34:24.693Z,2.90
2017-11-10T21:36:58.770Z,2.80
2017-11-10T21:39:26.961Z,2.80
2017-11-10T21:41:54.385Z,2.80
2017-11-10T21:44:21.838Z,2.80
2017-11-10T21:46:49.276Z,2.90
2017-11-10T21:49:16.698Z,3.00
2017-11-10T21:51:44.122Z,3.00
2017-11-10T21:54:12.325Z,3.00
2017-11-10T21:56:39.750Z,3.00
2017-11-10T21:59:08.518Z,3.00
2017-11-10T22:01:35.955Z,3.00
2017-11-10T22:04:03.365Z,3.00
2017-11-10T22:06:30.792Z,3.00
2017-11-10T22:08:58.218Z,2.90
2017-11-10T22:11:25.645Z,2.90
2017-11-10T22:13:53.089Z,2.80
2017-11-10T22:16:21.353Z,2.80
2017-11-10T22:18:48.760Z,2.80
2017-11-10T22:21:16.199Z,2.80
2017-11-10T22:23:44.431Z,2.80
2017-11-10T22:26:12.470Z,2.80
2017-11-10T22:28:39.918Z,2.80
2017-11-10T22:31:07.363Z,2.70
2017-11-10T22:33:34.773Z,2.60
2017-11-10T22:36:02.995Z,2.50
2017-11-10T22:38:30.417Z,2.40
2017-11-10T22:40:58.627Z,2.40
2017-11-10T22:43:26.058Z,2.40
2017-11-10T22:45:54.257Z,2.40
2017-11-10T22:48:22.094Z,2.40
2017-11-10T22:50:50.377Z,2.40
2017-11-10T22:53:18.525Z,2.40
2017-11-10T22:55:45.963Z,2.40
2017-11-10T22:58:13.937Z,2.30
2017-11-10T23:00:41.413Z,2.30
2017-11-10T23:03:09.341Z,2.20
2017-11-10T23:05:36.805Z,2.10
2017-11-10T23:08:04.220Z,2.00
2017-11-10T23:10:32.751Z,2.10
2017-11-10T23:13:00.985Z,2.20
2017-11-10T23:15:28.409Z,2.20
2017-11-10T23:17:57.045Z,2.10
2017-11-10T23:20:24.478Z,2.10
2017-11-10T23:22:51.893Z,2.10
2017-11-10T23:25:19.863Z,2.10
2017-11-10T23:27:47.281Z,2.10
2017-11-10T23:30:14.715Z,2.10
2017-11-10T23:32:42.142Z,2.10
2017-11-10T23:35:09.701Z,2.10
2017-11-10T23:37:37.119Z,2.10
2017-11-10T23:40:04.549Z,2.20
2017-11-10T23:42:32.577Z,2.20
2017-11-10T23:45:01.406Z,2.20
2017-11-10T23:47:28.840Z,2.20
2017-11-10T23:49:56.266Z,2.20
2017-11-10T23:52:24.105Z,2.20
2017-11-10T23:54:52.450Z,2.20
2017-11-10T23:57:20.720Z,2.30
2017-11-10T23:59:48.587Z,2.30
